sensor_id;sensor_type;location;lat;lon;timestamp;P1;durP1;ratioP1;P2;durP2;ratioP2
7683;SDS011;3884;48.616;12.872;2024-01-11T00:00:37;45.42;;;33.80;;
7683;SDS011;3884;48.616;12.872;2024-01-11T00:03:05;46.08;;;34.22;;
7683;SDS011;3884;48.616;12.872;2024-01-11T00:05:32;44.67;;;32.63;;
7683;SDS011;3884;48.616;12.872;2024-01-11T00:07:59;46.83;;;34.65;;
7683;SDS011;3884;48.616;12.872;2024-01-11T00:10:26;46.33;;;32.95;;
7683;SDS011;3884;48.616;12.872;2024-01-11T00:12:52;48.63;;;33.47;;
7683;SDS011;3884;48.616;12.872;2024-01-11T00:15:19;45.20;;;32.23;;
7683;SDS011;3884;48.616;12.872;2024-01-11T00:17:46;48.35;;;34.03;;
7683;SDS011;3884;48.616;12.872;2024-01-11T00:20:14;50.13;;;34.55;;
7683;SDS011;3884;48.616;12.872;2024-01-11T00:22:42;49.88;;;35.03;;
7683;SDS011;3884;48.616;12.872;2024-01-11T00:25:08;52.23;;;36.43;;
7683;SDS011;3884;48.616;12.872;2024-01-11T00:27:35;51.58;;;37.10;;
7683;SDS011;3884;48.616;12.872;2024-01-11T00:30:02;50.72;;;37.63;;
7683;SDS011;3884;48.616;12.872;2024-01-11T00:32:30;49.88;;;35.45;;
7683;SDS011;3884;48.616;12.872;2024-01-11T00:34:57;56.17;;;38.65;;
7683;SDS011;3884;48.616;12.872;2024-01-11T00:37:25;51.38;;;35.95;;
7683;SDS011;3884;48.616;12.872;2024-01-11T00:39:52;50.47;;;36.00;;
7683;SDS011;3884;48.616;12.872;2024-01-11T00:42:18;50.05;;;36.92;;
7683;SDS011;3884;48.616;12.872;2024-01-11T00:44:45;53.17;;;37.03;;
7683;SDS011;3884;48.616;12.872;2024-01-11T00:47:12;54.33;;;38.13;;
7683;SDS011;3884;48.616;12.872;2024-01-11T00:49:39;48.13;;;35.00;;
7683;SDS011;3884;48.616;12.872;2024-01-11T00:52:07;49.47;;;35.07;;
7683;SDS011;3884;48.616;12.872;2024-01-11T00:54:35;49.45;;;34.63;;
7683;SDS011;3884;48.616;12.872;2024-01-11T00:57:03;56.83;;;38.38;;
7683;SDS011;3884;48.616;12.872;2024-01-11T00:59:30;57.42;;;41.03;;
7683;SDS011;3884;48.616;12.872;2024-01-11T01:01:56;52.65;;;36.25;;
7683;SDS011;3884;48.616;12.872;2024-01-11T01:04:23;55.15;;;39.00;;
7683;SDS011;3884;48.616;12.872;2024-01-11T01:06:50;51.78;;;36.63;;
7683;SDS011;3884;48.616;12.872;2024-01-11T01:09:17;52.88;;;37.70;;
7683;SDS011;3884;48.616;12.872;2024-01-11T01:11:45;53.33;;;38.95;;
7683;SDS011;3884;48.616;12.872;2024-01-11T01:14:12;50.00;;;38.33;;
7683;SDS011;3884;48.616;12.872;2024-01-11T01:16:38;52.67;;;38.67;;
7683;SDS011;3884;48.616;12.872;2024-01-11T01:19:05;53.53;;;38.67;;
7683;SDS011;3884;48.616;12.872;2024-01-11T01:21:32;54.50;;;38.25;;
7683;SDS011;3884;48.616;12.872;2024-01-11T01:23:59;55.30;;;40.17;;
7683;SDS011;3884;48.616;12.872;2024-01-11T01:26:26;53.85;;;36.65;;
7683;SDS011;3884;48.616;12.872;2024-01-11T01:28:54;53.85;;;38.35;;
7683;SDS011;3884;48.616;12.872;2024-01-11T01:31:21;54.85;;;38.97;;
7683;SDS011;3884;48.616;12.872;2024-01-11T01:33:48;47.85;;;37.50;;
7683;SDS011;3884;48.616;12.872;2024-01-11T01:36:14;53.10;;;37.15;;
7683;SDS011;3884;48.616;12.872;2024-01-11T01:38:41;49.90;;;35.63;;
7683;SDS011;3884;48.616;12.872;2024-01-11T01:41:08;53.75;;;37.28;;
7683;SDS011;3884;48.616;12.872;2024-01-11T01:43:35;53.00;;;36.70;;
7683;SDS011;3884;48.616;12.872;2024-01-11T01:46:03;50.33;;;37.38;;
7683;SDS011;3884;48.616;12.872;2024-01-11T01:48:32;51.75;;;37.60;;
7683;SDS011;3884;48.616;12.872;2024-01-11T01:50:59;53.53;;;38.58;;
7683;SDS011;3884;48.616;12.872;2024-01-11T01:53:26;48.10;;;35.55;;
7683;SDS011;3884;48.616;12.872;2024-01-11T01:55:54;51.20;;;36.22;;
7683;SDS011;3884;48.616;12.872;2024-01-11T01:58:22;50.40;;;37.10;;
7683;SDS011;3884;48.616;12.872;2024-01-11T02:00:50;50.15;;;34.42;;
7683;SDS011;3884;48.616;12.872;2024-01-11T02:03:20;49.92;;;36.40;;
7683;SDS011;3884;48.616;12.872;2024-01-11T02:05:48;46.75;;;34.85;;
7683;SDS011;3884;48.616;12.872;2024-01-11T02:08:16;54.08;;;39.15;;
7683;SDS011;3884;48.616;12.872;2024-01-11T02:10:47;48.20;;;36.08;;
7683;SDS011;3884;48.616;12.872;2024-01-11T02:13:14;49.53;;;35.13;;
7683;SDS011;3884;48.616;12.872;2024-01-11T02:15:41;50.17;;;36.13;;
7683;SDS011;3884;48.616;12.872;2024-01-11T02:18:11;47.38;;;35.20;;
7683;SDS011;3884;48.616;12.872;2024-01-11T02:20:39;51.40;;;36.83;;
7683;SDS011;3884;48.616;12.872;2024-01-11T02:23:06;49.15;;;37.83;;
7683;SDS011;3884;48.616;12.872;2024-01-11T02:25:39;51.85;;;36.47;;
7683;SDS011;3884;48.616;12.872;2024-01-11T02:28:05;50.78;;;37.60;;
7683;SDS011;3884;48.616;12.872;2024-01-11T02:30:33;51.22;;;36.50;;
7683;SDS011;3884;48.616;12.872;2024-01-11T02:33:00;50.72;;;37.35;;
7683;SDS011;3884;48.616;12.872;2024-01-11T02:35:28;52.97;;;38.50;;
7683;SDS011;3884;48.616;12.872;2024-01-11T02:37:56;51.13;;;36.88;;
7683;SDS011;3884;48.616;12.872;2024-01-11T02:40:23;52.78;;;39.25;;
7683;SDS011;3884;48.616;12.872;2024-01-11T02:42:53;51.53;;;37.80;;
7683;SDS011;3884;48.616;12.872;2024-01-11T02:45:20;50.58;;;37.97;;
7683;SDS011;3884;48.616;12.872;2024-01-11T02:47:47;51.97;;;37.88;;
7683;SDS011;3884;48.616;12.872;2024-01-11T02:50:13;51.85;;;36.45;;
7683;SDS011;3884;48.616;12.872;2024-01-11T02:52:40;52.53;;;38.78;;
7683;SDS011;3884;48.616;12.872;2024-01-11T02:55:10;51.17;;;37.47;;
7683;SDS011;3884;48.616;12.872;2024-01-11T02:57:37;53.55;;;37.95;;
7683;SDS011;3884;48.616;12.872;2024-01-11T03:00:06;52.05;;;38.60;;
7683;SDS011;3884;48.616;12.872;2024-01-11T03:02:34;51.00;;;36.50;;
7683;SDS011;3884;48.616;12.872;2024-01-11T03:05:03;50.05;;;37.78;;
7683;SDS011;3884;48.616;12.872;2024-01-11T03:07:30;49.15;;;35.55;;
7683;SDS011;3884;48.616;12.872;2024-01-11T03:09:58;49.33;;;36.70;;
7683;SDS011;3884;48.616;12.872;2024-01-11T03:12:27;54.17;;;36.30;;
7683;SDS011;3884;48.616;12.872;2024-01-11T03:14:54;52.67;;;36.55;;
7683;SDS011;3884;48.616;12.872;2024-01-11T03:17:22;47.08;;;33.80;;
7683;SDS011;3884;48.616;12.872;2024-01-11T03:19:49;49.13;;;35.45;;
7683;SDS011;3884;48.616;12.872;2024-01-11T03:22:16;46.53;;;35.15;;
7683;SDS011;3884;48.616;12.872;2024-01-11T03:24:42;49.75;;;35.17;;
7683;SDS011;3884;48.616;12.872;2024-01-11T03:27:09;51.97;;;37.00;;
7683;SDS011;3884;48.616;12.872;2024-01-11T03:29:36;52.35;;;37.35;;
7683;SDS011;3884;48.616;12.872;2024-01-11T03:32:03;51.33;;;34.30;;
7683;SDS011;3884;48.616;12.872;2024-01-11T03:34:33;52.50;;;37.63;;
7683;SDS011;3884;48.616;12.872;2024-01-11T03:37:00;50.33;;;37.22;;
7683;SDS011;3884;48.616;12.872;2024-01-11T03:39:29;51.88;;;37.53;;
7683;SDS011;3884;48.616;12.872;2024-01-11T03:41:56;49.92;;;34.50;;
7683;SDS011;3884;48.616;12.872;2024-01-11T03:44:23;50.15;;;36.42;;
7683;SDS011;3884;48.616;12.872;2024-01-11T03:46:50;50.17;;;35.90;;
7683;SDS011;3884;48.616;12.872;2024-01-11T03:49:17;57.95;;;37.30;;
7683;SDS011;3884;48.616;12.872;2024-01-11T03:51:46;54.47;;;37.35;;
7683;SDS011;3884;48.616;12.872;2024-01-11T03:54:14;55.75;;;38.58;;
7683;SDS011;3884;48.616;12.872;2024-01-11T03:56:41;54.88;;;38.72;;
7683;SDS011;3884;48.616;12.872;2024-01-11T03:59:08;55.50;;;39.25;;
7683;SDS011;3884;48.616;12.872;2024-01-11T04:01:38;51.25;;;36.92;;
7683;SDS011;3884;48.616;12.872;2024-01-11T04:04:06;56.42;;;40.95;;
7683;SDS011;3884;48.616;12.872;2024-01-11T04:06:33;57.50;;;40.88;;
7683;SDS011;3884;48.616;12.872;2024-01-11T04:09:02;58.38;;;39.88;;
7683;SDS011;3884;48.616;12.872;2024-01-11T04:11:29;54.58;;;39.88;;
7683;SDS011;3884;48.616;12.872;2024-01-11T04:13:58;49.53;;;37.92;;
7683;SDS011;3884;48.616;12.872;2024-01-11T04:16:25;53.67;;;39.05;;
7683;SDS011;3884;48.616;12.872;2024-01-11T04:18:52;55.58;;;39.30;;
7683;SDS011;3884;48.616;12.872;2024-01-11T04:21:19;54.40;;;38.15;;
7683;SDS011;3884;48.616;12.872;2024-01-11T04:23:47;52.70;;;36.65;;
7683;SDS011;3884;48.616;12.872;2024-01-11T04:26:15;52.53;;;37.58;;
7683;SDS011;3884;48.616;12.872;2024-01-11T04:28:43;51.63;;;36.83;;
7683;SDS011;3884;48.616;12.872;2024-01-11T04:31:10;52.08;;;37.70;;
7683;SDS011;3884;48.616;12.872;2024-01-11T04:33:39;55.03;;;37.88;;
7683;SDS011;3884;48.616;12.872;2024-01-11T04:36:06;53.85;;;38.95;;
7683;SDS011;3884;48.616;12.872;2024-01-11T04:38:33;52.45;;;37.45;;
7683;SDS011;3884;48.616;12.872;2024-01-11T04:41:00;53.95;;;37.88;;
7683;SDS011;3884;48.616;12.872;2024-01-11T04:43:28;54.40;;;38.97;;
7683;SDS011;3884;48.616;12.872;2024-01-11T04:45:55;52.67;;;38.88;;
7683;SDS011;3884;48.616;12.872;2024-01-11T04:48:22;54.17;;;39.75;;
7683;SDS011;3884;48.616;12.872;2024-01-11T04:50:49;54.30;;;39.75;;
7683;SDS011;3884;48.616;12.872;2024-01-11T04:53:15;59.40;;;41.70;;
7683;SDS011;3884;48.616;12.872;2024-01-11T04:55:42;59.70;;;39.38;;
7683;SDS011;3884;48.616;12.872;2024-01-11T04:58:09;58.22;;;38.97;;
7683;SDS011;3884;48.616;12.872;2024-01-11T05:00:37;56.05;;;40.28;;
7683;SDS011;3884;48.616;12.872;2024-01-11T05:03:04;54.22;;;39.55;;
7683;SDS011;3884;48.616;12.872;2024-01-11T05:05:31;52.03;;;38.35;;
7683;SDS011;3884;48.616;12.872;2024-01-11T05:07:58;57.22;;;39.88;;
7683;SDS011;3884;48.616;12.872;2024-01-11T05:10:25;57.15;;;40.65;;
7683;SDS011;3884;48.616;12.872;2024-01-11T05:12:51;58.20;;;40.00;;
7683;SDS011;3884;48.616;12.872;2024-01-11T05:15:18;62.47;;;42.78;;
7683;SDS011;3884;48.616;12.872;2024-01-11T05:17:46;53.55;;;38.55;;
7683;SDS011;3884;48.616;12.872;2024-01-11T05:20:13;58.45;;;38.58;;
7683;SDS011;3884;48.616;12.872;2024-01-11T05:22:41;54.10;;;38.75;;
7683;SDS011;3884;48.616;12.872;2024-01-11T05:25:08;56.58;;;39.60;;
7683;SDS011;3884;48.616;12.872;2024-01-11T05:27:35;53.88;;;38.55;;
7683;SDS011;3884;48.616;12.872;2024-01-11T05:30:02;54.38;;;39.40;;
7683;SDS011;3884;48.616;12.872;2024-01-11T05:32:29;54.05;;;37.75;;
7683;SDS011;3884;48.616;12.872;2024-01-11T05:34:57;54.20;;;38.17;;
7683;SDS011;3884;48.616;12.872;2024-01-11T05:37:24;54.17;;;39.55;;
7683;SDS011;3884;48.616;12.872;2024-01-11T05:39:51;52.55;;;37.67;;
7683;SDS011;3884;48.616;12.872;2024-01-11T05:42:19;51.75;;;37.90;;
7683;SDS011;3884;48.616;12.872;2024-01-11T05:44:46;56.40;;;37.90;;
7683;SDS011;3884;48.616;12.872;2024-01-11T05:47:13;53.53;;;37.80;;
7683;SDS011;3884;48.616;12.872;2024-01-11T05:49:39;59.58;;;38.15;;
7683;SDS011;3884;48.616;12.872;2024-01-11T05:52:08;54.33;;;38.60;;
7683;SDS011;3884;48.616;12.872;2024-01-11T05:54:34;58.53;;;39.05;;
7683;SDS011;3884;48.616;12.872;2024-01-11T05:57:01;55.42;;;38.70;;
7683;SDS011;3884;48.616;12.872;2024-01-11T05:59:29;55.75;;;38.83;;
7683;SDS011;3884;48.616;12.872;2024-01-11T06:01:55;53.22;;;37.78;;
7683;SDS011;3884;48.616;12.872;2024-01-11T06:04:25;57.28;;;39.03;;
7683;SDS011;3884;48.616;12.872;2024-01-11T06:06:52;59.80;;;40.58;;
7683;SDS011;3884;48.616;12.872;2024-01-11T06:09:20;58.38;;;41.58;;
7683;SDS011;3884;48.616;12.872;2024-01-11T06:11:47;65.68;;;42.22;;
7683;SDS011;3884;48.616;12.872;2024-01-11T06:14:15;63.75;;;42.58;;
7683;SDS011;3884;48.616;12.872;2024-01-11T06:16:42;64.38;;;42.45;;
7683;SDS011;3884;48.616;12.872;2024-01-11T06:19:09;68.93;;;42.92;;
7683;SDS011;3884;48.616;12.872;2024-01-11T06:21:37;66.30;;;42.95;;
7683;SDS011;3884;48.616;12.872;2024-01-11T06:24:04;67.45;;;43.65;;
7683;SDS011;3884;48.616;12.872;2024-01-11T06:26:32;64.97;;;42.33;;
7683;SDS011;3884;48.616;12.872;2024-01-11T06:28:59;63.70;;;41.65;;
7683;SDS011;3884;48.616;12.872;2024-01-11T06:31:26;60.65;;;39.05;;
7683;SDS011;3884;48.616;12.872;2024-01-11T06:33:52;62.53;;;41.17;;
7683;SDS011;3884;48.616;12.872;2024-01-11T06:36:19;63.63;;;42.58;;
7683;SDS011;3884;48.616;12.872;2024-01-11T06:38:47;59.40;;;40.28;;
7683;SDS011;3884;48.616;12.872;2024-01-11T06:41:14;61.20;;;40.55;;
7683;SDS011;3884;48.616;12.872;2024-01-11T06:43:42;60.78;;;41.33;;
7683;SDS011;3884;48.616;12.872;2024-01-11T06:46:09;59.33;;;40.80;;
7683;SDS011;3884;48.616;12.872;2024-01-11T06:48:36;56.70;;;40.55;;
7683;SDS011;3884;48.616;12.872;2024-01-11T06:51:03;68.32;;;44.28;;
7683;SDS011;3884;48.616;12.872;2024-01-11T06:53:30;59.65;;;41.15;;
7683;SDS011;3884;48.616;12.872;2024-01-11T06:55:57;61.72;;;40.97;;
7683;SDS011;3884;48.616;12.872;2024-01-11T06:58:24;58.17;;;40.08;;
7683;SDS011;3884;48.616;12.872;2024-01-11T07:00:53;58.90;;;40.30;;
7683;SDS011;3884;48.616;12.872;2024-01-11T07:03:20;57.67;;;40.30;;
7683;SDS011;3884;48.616;12.872;2024-01-11T07:05:47;61.58;;;42.60;;
7683;SDS011;3884;48.616;12.872;2024-01-11T07:08:13;63.03;;;44.20;;
7683;SDS011;3884;48.616;12.872;2024-01-11T07:10:41;63.65;;;42.40;;
7683;SDS011;3884;48.616;12.872;2024-01-11T07:13:07;59.83;;;41.03;;
7683;SDS011;3884;48.616;12.872;2024-01-11T07:15:36;69.00;;;46.55;;
7683;SDS011;3884;48.616;12.872;2024-01-11T07:18:04;64.15;;;46.45;;
7683;SDS011;3884;48.616;12.872;2024-01-11T07:20:31;63.40;;;45.33;;
7683;SDS011;3884;48.616;12.872;2024-01-11T07:22:58;60.28;;;40.28;;
7683;SDS011;3884;48.616;12.872;2024-01-11T07:25:25;66.85;;;44.40;;
7683;SDS011;3884;48.616;12.872;2024-01-11T07:27:52;78.35;;;55.10;;
7683;SDS011;3884;48.616;12.872;2024-01-11T07:30:19;67.55;;;45.85;;
7683;SDS011;3884;48.616;12.872;2024-01-11T07:32:46;65.20;;;44.88;;
7683;SDS011;3884;48.616;12.872;2024-01-11T07:35:14;66.28;;;45.67;;
7683;SDS011;3884;48.616;12.872;2024-01-11T07:37:41;69.00;;;47.33;;
7683;SDS011;3884;48.616;12.872;2024-01-11T07:40:08;66.95;;;45.20;;
7683;SDS011;3884;48.616;12.872;2024-01-11T07:42:36;65.00;;;44.55;;
7683;SDS011;3884;48.616;12.872;2024-01-11T07:45:04;67.63;;;44.83;;
7683;SDS011;3884;48.616;12.872;2024-01-11T07:47:31;65.38;;;44.78;;
7683;SDS011;3884;48.616;12.872;2024-01-11T07:49:58;58.45;;;39.92;;
7683;SDS011;3884;48.616;12.872;2024-01-11T07:52:27;63.58;;;43.70;;
7683;SDS011;3884;48.616;12.872;2024-01-11T07:54:54;68.45;;;46.58;;
7683;SDS011;3884;48.616;12.872;2024-01-11T07:57:21;64.03;;;44.22;;
7683;SDS011;3884;48.616;12.872;2024-01-11T07:59:46;62.03;;;44.37;;
7683;SDS011;3884;48.616;12.872;2024-01-11T08:02:13;66.72;;;44.40;;
7683;SDS011;3884;48.616;12.872;2024-01-11T08:04:41;69.43;;;46.30;;
7683;SDS011;3884;48.616;12.872;2024-01-11T08:07:08;64.05;;;43.17;;
7683;SDS011;3884;48.616;12.872;2024-01-11T08:09:36;68.78;;;45.75;;
7683;SDS011;3884;48.616;12.872;2024-01-11T08:12:10;67.30;;;43.08;;
7683;SDS011;3884;48.616;12.872;2024-01-11T08:14:37;64.00;;;45.00;;
7683;SDS011;3884;48.616;12.872;2024-01-11T08:17:03;69.25;;;47.40;;
7683;SDS011;3884;48.616;12.872;2024-01-11T08:19:30;75.28;;;48.50;;
7683;SDS011;3884;48.616;12.872;2024-01-11T08:21:57;67.60;;;46.58;;
7683;SDS011;3884;48.616;12.872;2024-01-11T08:24:24;73.30;;;47.70;;
7683;SDS011;3884;48.616;12.872;2024-01-11T08:26:51;73.10;;;48.20;;
7683;SDS011;3884;48.616;12.872;2024-01-11T08:29:18;66.28;;;46.03;;
7683;SDS011;3884;48.616;12.872;2024-01-11T08:31:45;69.28;;;47.38;;
7683;SDS011;3884;48.616;12.872;2024-01-11T08:34:12;68.18;;;46.42;;
7683;SDS011;3884;48.616;12.872;2024-01-11T08:36:39;88.43;;;57.83;;
7683;SDS011;3884;48.616;12.872;2024-01-11T08:39:06;69.80;;;48.92;;
7683;SDS011;3884;48.616;12.872;2024-01-11T08:41:33;72.50;;;48.15;;
7683;SDS011;3884;48.616;12.872;2024-01-11T08:44:02;68.25;;;47.33;;
7683;SDS011;3884;48.616;12.872;2024-01-11T08:46:30;72.72;;;48.00;;
7683;SDS011;3884;48.616;12.872;2024-01-11T08:48:58;75.38;;;51.00;;
7683;SDS011;3884;48.616;12.872;2024-01-11T08:51:26;75.63;;;50.53;;
7683;SDS011;3884;48.616;12.872;2024-01-11T08:53:53;75.63;;;48.90;;
7683;SDS011;3884;48.616;12.872;2024-01-11T08:56:20;77.63;;;54.83;;
7683;SDS011;3884;48.616;12.872;2024-01-11T08:58:47;94.90;;;65.03;;
7683;SDS011;3884;48.616;12.872;2024-01-11T09:01:16;84.50;;;58.03;;
7683;SDS011;3884;48.616;12.872;2024-01-11T09:03:44;76.50;;;51.65;;
7683;SDS011;3884;48.616;12.872;2024-01-11T09:06:13;73.93;;;51.28;;
7683;SDS011;3884;48.616;12.872;2024-01-11T09:08:40;111.18;;;68.82;;
7683;SDS011;3884;48.616;12.872;2024-01-11T09:11:07;102.47;;;64.18;;
7683;SDS011;3884;48.616;12.872;2024-01-11T09:13:35;80.35;;;51.38;;
7683;SDS011;3884;48.616;12.872;2024-01-11T09:16:02;128.77;;;86.35;;
7683;SDS011;3884;48.616;12.872;2024-01-11T09:18:31;144.00;;;92.20;;
7683;SDS011;3884;48.616;12.872;2024-01-11T09:20:58;82.97;;;52.15;;
7683;SDS011;3884;48.616;12.872;2024-01-11T09:23:24;78.50;;;52.07;;
7683;SDS011;3884;48.616;12.872;2024-01-11T09:25:51;75.78;;;49.78;;
7683;SDS011;3884;48.616;12.872;2024-01-11T09:28:18;75.77;;;50.17;;
7683;SDS011;3884;48.616;12.872;2024-01-11T09:30:45;74.23;;;48.73;;
7683;SDS011;3884;48.616;12.872;2024-01-11T09:33:12;76.37;;;49.73;;
7683;SDS011;3884;48.616;12.872;2024-01-11T09:35:40;76.47;;;49.60;;
7683;SDS011;3884;48.616;12.872;2024-01-11T09:38:07;67.23;;;47.53;;
7683;SDS011;3884;48.616;12.872;2024-01-11T09:40:34;72.17;;;48.60;;
7683;SDS011;3884;48.616;12.872;2024-01-11T09:43:01;69.67;;;48.40;;
7683;SDS011;3884;48.616;12.872;2024-01-11T09:45:30;84.30;;;54.53;;
7683;SDS011;3884;48.616;12.872;2024-01-11T09:47:58;83.23;;;55.07;;
7683;SDS011;3884;48.616;12.872;2024-01-11T09:50:27;70.67;;;50.93;;
7683;SDS011;3884;48.616;12.872;2024-01-11T09:52:57;75.80;;;50.97;;
7683;SDS011;3884;48.616;12.872;2024-01-11T09:55:28;72.83;;;50.43;;
7683;SDS011;3884;48.616;12.872;2024-01-11T09:57:56;71.80;;;49.23;;
7683;SDS011;3884;48.616;12.872;2024-01-11T10:00:25;67.27;;;48.10;;
7683;SDS011;3884;48.616;12.872;2024-01-11T10:02:53;64.37;;;45.40;;
7683;SDS011;3884;48.616;12.872;2024-01-11T10:05:20;67.90;;;46.43;;
7683;SDS011;3884;48.616;12.872;2024-01-11T10:07:47;66.80;;;46.67;;
7683;SDS011;3884;48.616;12.872;2024-01-11T10:10:15;62.07;;;43.93;;
7683;SDS011;3884;48.616;12.872;2024-01-11T10:12:42;65.00;;;46.50;;
7683;SDS011;3884;48.616;12.872;2024-01-11T10:15:09;62.67;;;44.60;;
7683;SDS011;3884;48.616;12.872;2024-01-11T10:17:37;62.00;;;43.90;;
7683;SDS011;3884;48.616;12.872;2024-01-11T10:20:07;58.77;;;43.53;;
7683;SDS011;3884;48.616;12.872;2024-01-11T10:22:35;62.60;;;43.57;;
7683;SDS011;3884;48.616;12.872;2024-01-11T10:25:09;61.43;;;44.70;;
7683;SDS011;3884;48.616;12.872;2024-01-11T10:27:38;65.43;;;45.27;;
7683;SDS011;3884;48.616;12.872;2024-01-11T10:30:08;66.43;;;45.97;;
7683;SDS011;3884;48.616;12.872;2024-01-11T10:32:37;62.40;;;44.43;;
7683;SDS011;3884;48.616;12.872;2024-01-11T10:35:04;68.63;;;45.10;;
7683;SDS011;3884;48.616;12.872;2024-01-11T10:37:32;66.43;;;44.73;;
7683;SDS011;3884;48.616;12.872;2024-01-11T10:40:01;63.73;;;44.60;;
7683;SDS011;3884;48.616;12.872;2024-01-11T10:42:34;60.80;;;42.87;;
7683;SDS011;3884;48.616;12.872;2024-01-11T10:45:06;58.80;;;42.03;;
7683;SDS011;3884;48.616;12.872;2024-01-11T10:47:40;66.67;;;43.37;;
7683;SDS011;3884;48.616;12.872;2024-01-11T10:50:13;64.33;;;43.30;;
7683;SDS011;3884;48.616;12.872;2024-01-11T10:52:45;61.97;;;41.23;;
7683;SDS011;3884;48.616;12.872;2024-01-11T10:55:20;58.90;;;41.80;;
7683;SDS011;3884;48.616;12.872;2024-01-11T10:57:48;59.93;;;41.37;;
7683;SDS011;3884;48.616;12.872;2024-01-11T11:00:18;65.03;;;42.43;;
7683;SDS011;3884;48.616;12.872;2024-01-11T11:02:47;58.77;;;39.47;;
7683;SDS011;3884;48.616;12.872;2024-01-11T11:05:16;62.03;;;42.63;;
7683;SDS011;3884;48.616;12.872;2024-01-11T11:07:46;62.07;;;41.63;;
7683;SDS011;3884;48.616;12.872;2024-01-11T11:10:14;57.20;;;40.80;;
7683;SDS011;3884;48.616;12.872;2024-01-11T11:12:43;60.57;;;41.47;;
7683;SDS011;3884;48.616;12.872;2024-01-11T11:15:12;58.87;;;41.37;;
7683;SDS011;3884;48.616;12.872;2024-01-11T11:17:40;59.63;;;41.57;;
7683;SDS011;3884;48.616;12.872;2024-01-11T11:20:09;60.80;;;41.83;;
7683;SDS011;3884;48.616;12.872;2024-01-11T11:22:39;61.10;;;41.03;;
7683;SDS011;3884;48.616;12.872;2024-01-11T11:25:08;57.83;;;39.80;;
7683;SDS011;3884;48.616;12.872;2024-01-11T11:27:35;57.57;;;39.83;;
7683;SDS011;3884;48.616;12.872;2024-01-11T11:30:03;60.00;;;40.33;;
7683;SDS011;3884;48.616;12.872;2024-01-11T11:32:37;68.70;;;47.70;;
7683;SDS011;3884;48.616;12.872;2024-01-11T11:35:06;65.47;;;44.97;;
7683;SDS011;3884;48.616;12.872;2024-01-11T11:37:33;69.30;;;45.70;;
7683;SDS011;3884;48.616;12.872;2024-01-11T11:40:03;58.57;;;41.63;;
7683;SDS011;3884;48.616;12.872;2024-01-11T11:42:31;63.30;;;42.03;;
7683;SDS011;3884;48.616;12.872;2024-01-11T11:44:58;55.40;;;39.57;;
7683;SDS011;3884;48.616;12.872;2024-01-11T11:47:25;55.87;;;39.47;;
7683;SDS011;3884;48.616;12.872;2024-01-11T11:50:03;58.67;;;40.30;;
7683;SDS011;3884;48.616;12.872;2024-01-11T11:52:34;57.83;;;40.23;;
7683;SDS011;3884;48.616;12.872;2024-01-11T11:55:03;59.73;;;39.93;;
7683;SDS011;3884;48.616;12.872;2024-01-11T11:57:33;58.27;;;40.33;;
7683;SDS011;3884;48.616;12.872;2024-01-11T12:00:00;63.40;;;42.17;;
7683;SDS011;3884;48.616;12.872;2024-01-11T12:02:36;58.03;;;40.97;;
7683;SDS011;3884;48.616;12.872;2024-01-11T12:05:04;62.30;;;40.93;;
7683;SDS011;3884;48.616;12.872;2024-01-11T12:07:35;60.07;;;41.40;;
7683;SDS011;3884;48.616;12.872;2024-01-11T12:10:02;61.77;;;41.33;;
7683;SDS011;3884;48.616;12.872;2024-01-11T12:12:30;61.40;;;42.50;;
7683;SDS011;3884;48.616;12.872;2024-01-11T12:14:57;106.43;;;64.10;;
7683;SDS011;3884;48.616;12.872;2024-01-11T12:17:24;67.57;;;45.07;;
7683;SDS011;3884;48.616;12.872;2024-01-11T12:19:51;66.47;;;44.03;;
7683;SDS011;3884;48.616;12.872;2024-01-11T12:22:19;65.40;;;44.73;;
7683;SDS011;3884;48.616;12.872;2024-01-11T12:24:46;61.87;;;43.97;;
7683;SDS011;3884;48.616;12.872;2024-01-11T12:27:13;62.07;;;42.67;;
7683;SDS011;3884;48.616;12.872;2024-01-11T12:29:41;63.07;;;42.83;;
7683;SDS011;3884;48.616;12.872;2024-01-11T12:32:08;64.00;;;43.30;;
7683;SDS011;3884;48.616;12.872;2024-01-11T12:34:36;67.50;;;43.70;;
7683;SDS011;3884;48.616;12.872;2024-01-11T12:37:04;59.83;;;42.27;;
7683;SDS011;3884;48.616;12.872;2024-01-11T12:39:33;66.53;;;45.10;;
7683;SDS011;3884;48.616;12.872;2024-01-11T12:41:59;67.40;;;46.80;;
7683;SDS011;3884;48.616;12.872;2024-01-11T12:44:26;66.60;;;46.37;;
7683;SDS011;3884;48.616;12.872;2024-01-11T12:46:53;66.53;;;44.37;;
7683;SDS011;3884;48.616;12.872;2024-01-11T12:49:21;77.50;;;51.87;;
7683;SDS011;3884;48.616;12.872;2024-01-11T12:51:49;67.70;;;46.33;;
7683;SDS011;3884;48.616;12.872;2024-01-11T12:54:16;63.27;;;45.13;;
7683;SDS011;3884;48.616;12.872;2024-01-11T12:56:45;75.47;;;48.37;;
7683;SDS011;3884;48.616;12.872;2024-01-11T12:59:12;71.17;;;49.23;;
7683;SDS011;3884;48.616;12.872;2024-01-11T13:01:41;65.67;;;45.07;;
7683;SDS011;3884;48.616;12.872;2024-01-11T13:04:09;64.07;;;45.70;;
7683;SDS011;3884;48.616;12.872;2024-01-11T13:06:36;63.97;;;43.70;;
7683;SDS011;3884;48.616;12.872;2024-01-11T13:09:03;63.23;;;43.10;;
7683;SDS011;3884;48.616;12.872;2024-01-11T13:11:30;67.53;;;44.60;;
7683;SDS011;3884;48.616;12.872;2024-01-11T13:13:59;62.13;;;40.53;;
7683;SDS011;3884;48.616;12.872;2024-01-11T13:16:29;61.87;;;42.80;;
7683;SDS011;3884;48.616;12.872;2024-01-11T13:18:57;67.53;;;45.70;;
7683;SDS011;3884;48.616;12.872;2024-01-11T13:21:23;63.20;;;43.90;;
7683;SDS011;3884;48.616;12.872;2024-01-11T13:23:50;64.10;;;43.40;;
7683;SDS011;3884;48.616;12.872;2024-01-11T13:26:18;63.77;;;43.73;;
7683;SDS011;3884;48.616;12.872;2024-01-11T13:28:45;61.80;;;41.47;;
7683;SDS011;3884;48.616;12.872;2024-01-11T13:31:13;123.70;;;72.27;;
7683;SDS011;3884;48.616;12.872;2024-01-11T13:33:40;181.13;;;106.70;;
7683;SDS011;3884;48.616;12.872;2024-01-11T13:36:07;91.57;;;57.30;;
7683;SDS011;3884;48.616;12.872;2024-01-11T13:38:35;80.70;;;53.87;;
7683;SDS011;3884;48.616;12.872;2024-01-11T13:41:02;104.50;;;70.93;;
7683;SDS011;3884;48.616;12.872;2024-01-11T13:43:30;65.17;;;44.37;;
7683;SDS011;3884;48.616;12.872;2024-01-11T13:45:57;68.77;;;47.07;;
7683;SDS011;3884;48.616;12.872;2024-01-11T13:48:25;65.70;;;43.17;;
7683;SDS011;3884;48.616;12.872;2024-01-11T13:50:52;64.43;;;45.90;;
7683;SDS011;3884;48.616;12.872;2024-01-11T13:53:18;66.57;;;48.27;;
7683;SDS011;3884;48.616;12.872;2024-01-11T13:55:45;93.60;;;58.03;;
7683;SDS011;3884;48.616;12.872;2024-01-11T13:58:12;268.80;;;150.73;;
7683;SDS011;3884;48.616;12.872;2024-01-11T14:00:40;126.63;;;84.57;;
7683;SDS011;3884;48.616;12.872;2024-01-11T14:03:07;70.23;;;47.33;;
7683;SDS011;3884;48.616;12.872;2024-01-11T14:05:36;69.30;;;47.63;;
7683;SDS011;3884;48.616;12.872;2024-01-11T14:08:04;77.27;;;51.60;;
7683;SDS011;3884;48.616;12.872;2024-01-11T14:10:32;69.93;;;47.77;;
7683;SDS011;3884;48.616;12.872;2024-01-11T14:13:00;64.17;;;45.07;;
7683;SDS011;3884;48.616;12.872;2024-01-11T14:15:27;67.53;;;47.40;;
7683;SDS011;3884;48.616;12.872;2024-01-11T14:17:54;66.57;;;46.67;;
7683;SDS011;3884;48.616;12.872;2024-01-11T14:20:21;75.43;;;48.70;;
7683;SDS011;3884;48.616;12.872;2024-01-11T14:22:49;63.73;;;44.17;;
7683;SDS011;3884;48.616;12.872;2024-01-11T14:25:17;64.13;;;42.77;;
7683;SDS011;3884;48.616;12.872;2024-01-11T14:27:44;62.90;;;44.10;;
7683;SDS011;3884;48.616;12.872;2024-01-11T14:30:12;66.97;;;44.67;;
7683;SDS011;3884;48.616;12.872;2024-01-11T14:32:39;66.60;;;44.23;;
7683;SDS011;3884;48.616;12.872;2024-01-11T14:35:07;67.50;;;45.43;;